RJOA/HIJ METAR and TAF weather

Enter ICAO airport designator
Station Type Date Time Source
RJOA METAR 2019/06/18 05:00 UTC NOAA

RJOA 180500Z 19004KT 160V240 9999 FEW030 BKN/// 22/14 Q1012


Station Type Date Time Source
RJOA Decoded METAR 2019/06/18 05:00 UTC NOAA

Hiroshima Airport, Japan (RJOA) 34-26N 132-55E 334M
Jun 18, 2019 - 01:00 AM EDT / 2019.06.18 0500 UTC
Wind: from the S (190 degrees) at 5 MPH (4 KT) (direction variable):0
Visibility: greater than 7 mile(s):0
Sky conditions: mostly cloudy
Temperature: 71 F (22 C)
Dew Point: 57 F (14 C)
Relative Humidity: 60%
Pressure (altimeter): 29.88 in. Hg (1012 hPa)
ob: RJOA 180500Z 19004KT 160V240 9999 FEW030 BKN/// 22/14 Q1012
cycle: 5

Station Type Date Time Source
RJOA TAF 2019/06/18 06:30 UTC NOAA

TAF RJOA 180505Z 1806/1912 21005KT 9999 FEW030
BECMG 1821/1900 15005KT

Example: see airport list